Time;durP1;ratioP1;P1;durP2;ratioP2;P2;SDS_P1;SDS_P2;PMS_P1;PMS_P2;Temp;Humidity;BMP_temperature;BMP_pressure;BME280_temperature;BME280_humidity;BME280_pressure;Samples;Min_cycle;Max_cycle;Signal;HPM_P1;HPM_P2
2023/11/20 00:00:40;;;;;;;15.73;2.65;;;;;;;11.83;100.00;100788.00;6081287;19;20466;-74
2023/11/20 00:02:45;;;;;;;16.05;3.45;;;;;;;11.86;100.00;100793.16;6084353;19;20487;-72
2023/11/20 00:04:48;;;;;;;11.65;2.97;;;;;;;11.87;100.00;100794.00;6085308;19;20707;-74
2023/11/20 00:06:53;;;;;;;12.82;2.95;;;;;;;11.90;100.00;100785.09;6081290;19;20019;-74
2023/11/20 00:09:07;;;;;;;25.27;3.45;;;;;;;11.89;100.00;100791.31;6085471;19;20002;-73
2023/11/20 00:11:13;;;;;;;21.33;3.10;;;;;;;11.85;100.00;100785.31;6086679;19;20011;-73
2023/11/20 00:13:17;;;;;;;17.83;2.80;;;;;;;11.85;100.00;100801.94;6086808;19;20010;-72
2023/11/20 00:15:27;;;;;;;13.40;4.70;;;;;;;11.84;100.00;100802.00;6086748;19;20484;-72
2023/11/20 00:17:30;;;;;;;16.67;3.38;;;;;;;11.84;100.00;100792.31;6082111;19;20450;-72
2023/11/20 00:19:40;;;;;;;16.15;2.97;;;;;;;11.83;100.00;100793.25;6082816;19;20484;-73
2023/11/20 00:21:42;;;;;;;22.95;3.10;;;;;;;11.86;100.00;100798.41;6086640;19;20010;-73
2023/11/20 00:23:47;;;;;;;18.35;2.83;;;;;;;11.83;100.00;100802.94;6083869;19;20475;-72
2023/11/20 00:25:53;;;;;;;14.20;3.20;;;;;;;11.84;100.00;100794.97;6083407;19;20518;-73
2023/11/20 00:27:59;;;;;;;13.50;3.53;;;;;;;11.83;100.00;100805.59;6084762;19;20038;-73
2023/11/20 00:30:05;;;;;;;9.88;2.45;;;;;;;11.81;100.00;100808.28;6082218;19;20455;-73
2023/11/20 00:32:15;;;;;;;15.63;2.95;;;;;;;11.80;100.00;100803.94;6077454;19;19998;-73
2023/11/20 00:34:23;;;;;;;23.75;4.07;;;;;;;11.77;100.00;100801.47;6079264;19;19999;-73
2023/11/20 00:36:31;;;;;;;21.58;4.25;;;;;;;11.81;100.00;100805.63;6082611;19;20011;-73
2023/11/20 00:38:33;;;;;;;17.42;2.90;;;;;;;11.79;100.00;100801.38;6083894;19;20011;-73
2023/11/20 00:40:39;;;;;;;18.77;3.35;;;;;;;11.78;100.00;100794.41;6083292;19;20101;-73
2023/11/20 00:42:46;;;;;;;13.60;3.50;;;;;;;11.78;100.00;100800.53;6078725;19;20007;-73
2023/11/20 00:44:51;;;;;;;19.23;3.92;;;;;;;11.78;100.00;100802.31;6079238;19;20378;-73
2023/11/20 00:46:56;;;;;;;22.13;3.97;;;;;;;11.77;100.00;100796.19;6078803;19;20011;-72
2023/11/20 00:49:05;;;;;;;13.43;3.45;;;;;;;11.77;100.00;100798.81;6075937;19;20327;-73
2023/11/20 00:51:10;;;;;;;14.40;2.90;;;;;;;11.80;100.00;100798.69;6075045;19;20014;-73
2023/11/20 00:53:15;;;;;;;13.18;4.18;;;;;;;11.77;100.00;100798.81;6077669;19;20085;-74
2023/11/20 00:55:20;;;;;;;23.88;3.90;;;;;;;11.74;100.00;100803.34;6082079;19;20022;-73
2023/11/20 00:57:23;;;;;;;19.90;3.10;;;;;;;11.78;100.00;100805.78;6080980;19;20102;-73
2023/11/20 00:59:30;;;;;;;13.70;3.38;;;;;;;11.79;100.00;100802.22;6079769;19;20010;-73
2023/11/20 01:01:37;;;;;;;18.67;3.85;;;;;;;11.74;100.00;100800.72;6079431;19;20023;-72
2023/11/20 01:03:43;;;;;;;15.70;3.58;;;;;;;11.68;100.00;100815.03;6079554;19;20034;-73
2023/11/20 01:05:48;;;;;;;19.50;3.05;;;;;;;11.73;100.00;100801.66;6080579;19;20002;-73
2023/11/20 01:07:53;;;;;;;13.35;2.70;;;;;;;11.75;100.00;100802.44;6079367;19;20015;-73
2023/11/20 01:10:00;;;;;;;15.40;3.20;;;;;;;11.71;100.00;100806.13;6077080;19;20404;-75
2023/11/20 01:12:06;;;;;;;11.25;3.05;;;;;;;11.66;100.00;100816.88;6076697;19;20029;-73
2023/11/20 01:14:12;;;;;;;13.32;3.13;;;;;;;11.59;100.00;100812.81;6080167;19;20006;-72
2023/11/20 01:16:17;;;;;;;14.35;4.47;;;;;;;11.52;100.00;100816.66;6079429;19;20227;-75
2023/11/20 01:18:22;;;;;;;17.92;3.90;;;;;;;11.46;100.00;100825.66;6080587;19;20364;-74
2023/11/20 01:20:27;;;;;;;16.27;2.75;;;;;;;11.35;100.00;100823.53;6073096;19;19998;-74
2023/11/20 01:22:34;;;;;;;11.85;3.20;;;;;;;11.36;100.00;100827.84;6076704;19;20478;-75
2023/11/20 01:24:40;;;;;;;15.90;3.90;;;;;;;11.36;100.00;100825.22;6077355;19;20002;-74
2023/11/20 01:26:45;;;;;;;20.27;4.75;;;;;;;11.27;100.00;100825.63;6078634;19;20010;-72
2023/11/20 01:28:59;;;;;;;19.00;3.47;;;;;;;11.28;100.00;100831.75;6074387;19;20733;-74
2023/11/20 01:31:05;;;;;;;15.93;3.38;;;;;;;11.27;100.00;100835.28;6082559;19;20007;-74
2023/11/20 01:33:10;;;;;;;27.23;3.08;;;;;;;11.20;100.00;100838.19;6082266;19;20010;-75
2023/11/20 01:35:19;;;;;;;17.38;3.70;;;;;;;11.18;100.00;100842.66;6082798;19;20006;-75
2023/11/20 01:37:27;;;;;;;23.15;3.47;;;;;;;11.15;100.00;100841.94;6085377;19;20038;-74
2023/11/20 01:39:34;;;;;;;17.45;3.45;;;;;;;11.09;100.00;100845.69;6080790;19;21537;-74
2023/11/20 01:41:42;;;;;;;7.13;2.83;;;;;;;11.08;100.00;100843.94;6082157;19;20020;-74
2023/11/20 01:43:47;;;;;;;13.95;3.53;;;;;;;11.04;100.00;100837.13;6089527;19;20037;-72
2023/11/20 01:45:58;;;;;;;13.18;3.55;;;;;;;11.09;100.00;100850.94;6087360;19;20078;-74
2023/11/20 01:48:03;;;;;;;15.18;3.72;;;;;;;11.08;100.00;100843.94;6084823;19;20042;-77
2023/11/20 01:50:17;;;;;;;17.15;4.20;;;;;;;11.08;100.00;100838.69;6083440;19;20090;-75
2023/11/20 01:52:23;;;;;;;18.33;4.70;;;;;;;11.12;100.00;100831.56;6084561;19;20146;-73
2023/11/20 01:54:31;;;;;;;14.57;3.78;;;;;;;11.12;100.00;100840.28;6087014;19;20010;-72
2023/11/20 01:56:40;;;;;;;18.52;3.25;;;;;;;11.13;100.00;100834.09;6086834;19;20010;-72
2023/11/20 01:58:45;;;;;;;17.83;3.17;;;;;;;11.18;100.00;100836.53;6086826;19;20582;-72
2023/11/20 02:00:53;;;;;;;19.38;3.90;;;;;;;11.21;100.00;100837.25;6086928;19;20005;-73
2023/11/20 02:02:59;;;;;;;19.15;3.88;;;;;;;11.19;100.00;100848.78;6086919;19;20007;-72
2023/11/20 02:05:02;;;;;;;13.27;3.17;;;;;;;11.22;100.00;100853.91;6088597;19;20702;-72
2023/11/20 02:07:08;;;;;;;28.13;4.40;;;;;;;11.23;100.00;100845.09;6088164;19;20033;-72
2023/11/20 02:09:16;;;;;;;15.07;3.47;;;;;;;11.21;100.00;100850.41;6087969;19;20002;-72
2023/11/20 02:11:26;;;;;;;16.67;4.93;;;;;;;11.21;100.00;100849.56;6089120;19;20018;-72
2023/11/20 02:13:36;;;;;;;25.88;4.10;;;;;;;11.17;100.00;100840.94;6108744;19;20057;-72
2023/11/20 02:15:42;;;;;;;14.20;3.60;;;;;;;11.18;100.00;100847.06;6082748;19;20031;-74
2023/11/20 02:17:44;;;;;;;19.67;4.22;;;;;;;11.18;100.00;100841.78;6087780;19;20391;-74
2023/11/20 02:19:50;;;;;;;12.50;3.42;;;;;;;11.16;100.00;100841.88;6089663;19;20014;-73
2023/11/20 02:21:53;;;;;;;20.10;3.97;;;;;;;11.18;100.00;100841.78;6080155;19;20516;-73
2023/11/20 02:23:59;;;;;;;16.75;3.53;;;;;;;11.21;100.00;100836.41;6085937;19;20006;-74
2023/11/20 02:26:33;;;;;;;11.02;3.35;;;;;;;11.19;100.00;100833.84;6085335;19;20015;-72
2023/11/20 02:28:42;;;;;;;24.00;5.22;;;;;;;11.29;100.00;100842.19;6084959;19;20010;-75
2023/11/20 02:30:50;;;;;;;9.80;2.65;;;;;;;11.28;100.00;100837.84;6088506;19;20037;-75
2023/11/20 02:32:59;;;;;;;21.63;3.60;;;;;;;11.25;100.00;100837.13;6080452;19;20037;-74
2023/11/20 02:35:09;;;;;;;21.73;3.70;;;;;;;11.25;100.00;100832.72;6084230;19;20016;-72
2023/11/20 02:37:11;;;;;;;18.35;3.17;;;;;;;11.24;100.00;100831.00;6085616;19;20499;-74
2023/11/20 02:39:18;;;;;;;14.02;3.60;;;;;;;11.25;100.00;100832.72;6083485;19;20002;-74
2023/11/20 02:41:20;;;;;;;17.73;3.45;;;;;;;11.24;100.00;100841.53;6081301;19;20082;-73
2023/11/20 02:43:26;;;;;;;9.77;3.10;;;;;;;11.23;100.00;100831.94;6080902;19;20023;-73
2023/11/20 02:45:35;;;;;;;12.02;3.30;;;;;;;11.20;100.00;100829.44;6083019;19;20759;-75
2023/11/20 02:47:45;;;;;;;16.60;3.60;;;;;;;11.15;100.00;100832.25;6086255;19;20336;-72
2023/11/20 02:49:51;;;;;;;21.55;3.75;;;;;;;11.15;100.00;100831.41;6081186;19;20014;-75
2023/11/20 02:51:56;;;;;;;11.65;3.60;;;;;;;11.14;100.00;100845.50;6082346;19;20007;-75
2023/11/20 02:54:01;;;;;;;19.25;3.92;;;;;;;11.16;100.00;100830.47;6081595;19;20010;-75
2023/11/20 02:56:07;;;;;;;15.30;2.75;;;;;;;11.18;100.00;100837.38;6081297;19;20567;-75
2023/11/20 02:58:16;;;;;;;18.70;4.03;;;;;;;11.12;100.00;100839.44;6082855;19;20033;-75
2023/11/20 03:00:23;;;;;;;19.02;3.72;;;;;;;11.13;100.00;100834.09;6081471;19;20041;-74
2023/11/20 03:02:28;;;;;;;20.50;3.42;;;;;;;11.10;100.00;100841.28;6081048;19;20019;-75
2023/11/20 03:04:33;;;;;;;19.17;3.78;;;;;;;11.13;100.00;100828.00;6081411;19;20014;-74
2023/11/20 03:06:41;;;;;;;21.48;3.63;;;;;;;11.15;100.00;100842.78;6081210;19;20017;-75
2023/11/20 03:08:46;;;;;;;13.02;3.65;;;;;;;11.13;100.00;100839.34;6083439;19;20062;-75
2023/11/20 03:10:51;;;;;;;15.40;3.17;;;;;;;11.16;100.00;100847.16;6076599;19;20467;-73
2023/11/20 03:13:01;;;;;;;21.35;3.90;;;;;;;11.15;100.00;100837.53;6080655;19;20007;-74
2023/11/20 03:15:11;;;;;;;19.73;3.25;;;;;;;11.15;100.00;100841.94;6085515;19;20537;-73
2023/11/20 03:17:16;;;;;;;18.45;3.10;;;;;;;11.18;100.00;100855.78;6079320;19;20006;-73
2023/11/20 03:19:22;;;;;;;18.85;4.68;;;;;;;11.14;100.00;100845.50;6083709;19;20680;-75
2023/11/20 03:21:30;;;;;;;10.75;2.90;;;;;;;11.19;100.00;100843.53;6080125;19;20308;-74
2023/11/20 03:23:40;;;;;;;19.02;3.65;;;;;;;11.17;100.00;100838.31;6079175;19;20014;-75
2023/11/20 03:25:47;;;;;;;17.42;3.70;;;;;;;11.14;100.00;100837.59;6080114;19;20090;-75
2023/11/20 03:27:54;;;;;;;25.55;3.63;;;;;;;11.13;100.00;100835.88;6081932;19;20007;-75
2023/11/20 03:29:59;;;;;;;15.70;2.55;;;;;;;11.15;100.00;100841.94;6081947;19;20007;-75
2023/11/20 03:32:01;;;;;;;23.83;3.95;;;;;;;11.15;100.00;100842.78;6082465;19;20300;-74
2023/11/20 03:34:07;;;;;;;14.23;3.72;;;;;;;11.18;100.00;100841.78;6077396;19;20003;-74
2023/11/20 03:36:10;;;;;;;13.00;3.35;;;;;;;11.16;100.00;100841.00;6080485;19;20015;-74
2023/11/20 03:38:18;;;;;;;13.70;3.53;;;;;;;11.22;100.00;100843.38;6082623;19;20011;-73
2023/11/20 03:40:26;;;;;;;12.45;3.33;;;;;;;11.19;100.00;100848.78;6078680;19;20774;-74
2023/11/20 03:42:31;;;;;;;14.90;3.25;;;;;;;11.23;100.00;100838.97;6078616;19;20840;-73
2023/11/20 03:44:33;;;;;;;20.65;3.70;;;;;;;11.16;100.00;100847.16;6078320;19;20082;-73
2023/11/20 03:46:41;;;;;;;19.02;3.33;;;;;;;11.16;100.00;100843.63;6078768;19;20070;-73
2023/11/20 03:48:49;;;;;;;12.25;3.00;;;;;;;11.15;100.00;100834.03;6081547;19;20034;-73
2023/11/20 03:50:57;;;;;;;8.85;2.40;;;;;;;11.19;100.00;100838.25;6079278;19;20019;-74
2023/11/20 03:53:02;;;;;;;16.33;3.70;;;;;;;11.17;100.00;100840.09;6075730;19;20010;-75
2023/11/20 03:55:12;;;;;;;14.25;2.70;;;;;;;11.20;100.00;100840.81;6082456;19;20371;-74
2023/11/20 03:57:20;;;;;;;14.07;3.25;;;;;;;11.14;100.00;100832.34;6081586;19;20085;-75
2023/11/20 03:59:27;;;;;;;18.77;4.30;;;;;;;11.16;100.00;100831.34;6080048;19;20077;-74
2023/11/20 04:01:36;;;;;;;14.80;4.80;;;;;;;11.11;100.00;100841.22;6080361;19;20011;-73
2023/11/20 04:03:41;;;;;;;22.55;3.58;;;;;;;11.10;100.00;100843.91;6079944;19;20007;-74
2023/11/20 04:05:48;;;;;;;16.92;4.32;;;;;;;11.09;100.00;100836.94;6083197;19;20387;-73
2023/11/20 04:07:54;;;;;;;17.42;3.67;;;;;;;11.07;100.00;100834.38;6084436;19;20010;-75
2023/11/20 04:09:59;;;;;;;16.30;3.50;;;;;;;11.07;100.00;100838.78;6085544;19;20499;-74
2023/11/20 04:12:09;;;;;;;24.02;3.97;;;;;;;11.11;100.00;100837.72;6078352;19;20006;-73
2023/11/20 04:14:15;;;;;;;12.38;3.33;;;;;;;11.11;100.00;100841.22;6084233;19;20426;-73
2023/11/20 04:16:20;;;;;;;16.65;3.50;;;;;;;11.12;100.00;100836.81;6081636;19;20006;-73
2023/11/20 04:18:25;;;;;;;13.68;3.03;;;;;;;11.13;100.00;100844.63;6083592;19;20027;-74
2023/11/20 04:20:31;;;;;;;12.65;3.00;;;;;;;11.12;100.00;100847.31;6082809;19;20033;-74
2023/11/20 04:22:37;;;;;;;20.25;2.83;;;;;;;11.07;100.00;100850.16;6082137;19;20041;-73
2023/11/20 04:24:42;;;;;;;17.95;3.65;;;;;;;11.04;100.00;100849.44;6081991;19;20031;-73
2023/11/20 04:26:49;;;;;;;19.95;4.88;;;;;;;11.10;100.00;100846.53;6081887;19;20093;-74
2023/11/20 04:28:58;;;;;;;18.13;3.97;;;;;;;11.12;100.00;100845.56;6082791;19;20522;-72
2023/11/20 04:31:04;;;;;;;18.65;4.20;;;;;;;11.09;100.00;100847.47;6081993;19;20066;-72
2023/11/20 04:33:11;;;;;;;15.80;4.18;;;;;;;11.04;100.00;100836.28;6080220;19;20003;-72
2023/11/20 04:35:16;;;;;;;15.95;3.95;;;;;;;11.02;100.00;100840.75;6081457;19;20428;-72
2023/11/20 04:37:21;;;;;;;13.05;3.42;;;;;;;11.05;100.00;100845.88;6084025;19;20014;-73
2023/11/20 04:39:26;;;;;;;16.67;3.40;;;;;;;11.07;100.00;100844.88;6084718;19;20034;-72
2023/11/20 04:41:33;;;;;;;19.02;3.35;;;;;;;11.03;100.00;100838.03;6086264;19;20007;-72
2023/11/20 04:43:41;;;;;;;13.13;3.03;;;;;;;11.02;100.00;100846.00;6083293;19;20037;-73
2023/11/20 04:45:49;;;;;;;16.50;3.17;;;;;;;10.94;100.00;100839.28;6084498;19;20375;-73
2023/11/20 04:47:54;;;;;;;24.83;4.43;;;;;;;10.97;100.00;100844.41;6080674;19;20332;-72
2023/11/20 04:50:05;;;;;;;9.50;2.47;;;;;;;10.96;100.00;100837.47;6082781;19;20007;-73
2023/11/20 04:52:11;;;;;;;12.80;3.65;;;;;;;10.95;100.00;100840.13;6078205;19;20007;-73
2023/11/20 04:54:17;;;;;;;18.58;5.65;;;;;;;10.94;100.00;100835.81;6076071;19;20014;-73
2023/11/20 04:56:22;;;;;;;18.15;3.30;;;;;;;10.96;100.00;100839.25;6083605;19;20050;-73
2023/11/20 04:58:27;;;;;;;13.68;2.97;;;;;;;10.92;100.00;100835.00;6080070;19;20015;-75
2023/11/20 05:00:30;;;;;;;12.85;2.50;;;;;;;10.88;100.00;100822.94;6081083;19;20041;-72
2023/11/20 05:02:39;;;;;;;16.60;3.15;;;;;;;10.85;100.00;100831.81;6078240;19;20011;-74
2023/11/20 05:04:44;;;;;;;12.88;2.45;;;;;;;10.83;100.00;100841.53;6083997;19;20013;-74
2023/11/20 05:06:52;;;;;;;20.88;4.32;;;;;;;10.83;100.00;100832.78;6082262;19;20531;-74
2023/11/20 05:08:57;;;;;;;17.48;2.60;;;;;;;10.81;100.00;100835.47;6082494;19;20046;-73
2023/11/20 05:11:02;;;;;;;9.48;2.45;;;;;;;10.86;100.00;100836.13;6081891;19;20078;-74
2023/11/20 05:13:09;;;;;;;10.63;2.97;;;;;;;10.84;100.00;100839.75;6081634;19;20050;-72
2023/11/20 05:15:14;;;;;;;12.20;3.45;;;;;;;10.80;100.00;100846.91;6086988;19;20383;-72
2023/11/20 05:17:22;;;;;;;20.73;3.55;;;;;;;10.77;100.00;100850.50;6086789;19;20014;-73
2023/11/20 05:19:31;;;;;;;8.15;2.33;;;;;;;10.70;100.00;100850.81;6088074;19;20013;-74
2023/11/20 05:21:35;;;;;;;16.30;2.92;;;;;;;10.67;100.00;100853.59;6086727;19;20025;-73
2023/11/20 05:23:42;;;;;;;14.63;3.10;;;;;;;10.66;100.00;100849.22;6086155;19;20006;-72
2023/11/20 05:25:48;;;;;;;10.05;2.42;;;;;;;10.60;100.00;100844.22;6083972;19;20463;-72
2023/11/20 05:27:53;;;;;;;14.02;3.08;;;;;;;10.64;100.00;100846.69;6086516;19;20027;-73
2023/11/20 05:30:00;;;;;;;20.63;4.25;;;;;;;10.62;100.00;100850.28;6088959;19;20010;-72
2023/11/20 05:32:05;;;;;;;9.82;2.35;;;;;;;10.61;100.00;100852.06;6087876;19;20003;-72
2023/11/20 05:34:14;;;;;;;18.30;4.10;;;;;;;10.63;100.00;100844.94;6088317;19;20006;-73
2023/11/20 05:36:35;;;;;;;16.85;3.22;;;;;;;10.61;100.00;100844.19;6088722;19;20348;-73
2023/11/20 05:39:04;;;;;;;16.65;2.70;;;;;;;10.65;100.00;100847.53;5984391;19;2004668;-72
2023/11/20 05:41:11;;;;;;;14.32;2.83;;;;;;;10.62;100.00;100848.50;6089693;19;20007;-74
2023/11/20 05:43:15;;;;;;;19.23;2.83;;;;;;;10.57;100.00;100847.00;6081614;19;20074;-73
2023/11/20 05:45:21;;;;;;;9.55;3.15;;;;;;;10.54;100.00;100853.22;6087900;19;20014;-73
2023/11/20 05:47:27;;;;;;;15.75;3.65;;;;;;;10.52;100.00;100852.41;6086698;19;20113;-75
2023/11/20 05:49:32;;;;;;;21.67;4.15;;;;;;;10.48;100.00;100845.59;6089218;19;20039;-75
2023/11/20 05:51:42;;;;;;;19.77;5.25;;;;;;;10.48;100.00;100856.97;6088087;19;20007;-75
2023/11/20 05:53:49;;;;;;;20.50;3.85;;;;;;;10.51;100.00;100851.56;6085659;19;20025;-75
2023/11/20 05:55:56;;;;;;;21.52;4.57;;;;;;;10.46;100.00;100856.16;6085487;19;20082;-75
2023/11/20 05:57:59;;;;;;;19.30;3.22;;;;;;;10.44;100.00;100854.50;6085841;19;20015;-75
2023/11/20 06:00:06;;;;;;;;;;;;;;;10.42;100.00;100857.19;6089031;19;20045;-72
2023/11/20 06:02:11;;;;;;;16.10;3.10;;;;;;;10.40;100.00;100853.78;6087566;19;19911;-77
2023/11/20 06:04:18;;;;;;;19.83;3.70;;;;;;;10.38;100.00;100855.59;6088407;19;20019;-72
2023/11/20 06:06:31;;;;;;;16.10;4.40;;;;;;;10.41;100.00;100852.00;6087835;19;20002;-74
2023/11/20 06:08:40;;;;;;;15.15;3.38;;;;;;;10.46;100.00;100865.81;6087203;19;20592;-72
2023/11/20 06:10:48;;;;;;;32.03;4.60;;;;;;;10.38;100.00;100863.47;6083779;19;20006;-73
2023/11/20 06:12:53;;;;;;;16.63;3.83;;;;;;;10.45;100.00;100867.59;6087532;19;20041;-73
2023/11/20 06:15:00;;;;;;;22.42;3.90;;;;;;;10.47;100.00;100862.25;6073686;19;20011;-73
2023/11/20 06:17:09;;;;;;;25.15;4.45;;;;;;;10.47;100.00;100862.25;6087009;19;20082;-74
2023/11/20 06:19:18;;;;;;;29.17;3.53;;;;;;;10.53;100.00;100867.25;6088318;19;20494;-75
2023/11/20 06:21:21;;;;;;;18.40;3.97;;;;;;;10.48;100.00;100875.34;6086699;19;20002;-73
2023/11/20 06:23:29;;;;;;;24.77;3.20;;;;;;;10.46;100.00;100871.91;6084223;19;20003;-72
2023/11/20 06:25:43;;;;;;;14.55;3.45;;;;;;;10.41;100.00;100862.50;6080281;19;20014;-73
2023/11/20 06:27:48;;;;;;;14.38;3.22;;;;;;;10.29;100.00;100866.44;6086397;19;20098;-73
2023/11/20 06:29:53;;;;;;;16.60;3.65;;;;;;;10.18;100.00;100860.75;6082357;19;20612;-74
2023/11/20 06:32:01;;;;;;;13.77;3.53;;;;;;;10.12;100.00;100861.84;6083112;19;20400;-74
2023/11/20 06:34:06;;;;;;;12.02;2.45;;;;;;;10.11;100.00;100874.13;6086954;19;20025;-74
2023/11/20 06:36:13;;;;;;;15.75;2.75;;;;;;;9.98;100.00;100870.25;6086548;19;20018;-74
2023/11/20 06:38:18;;;;;;;14.75;3.33;;;;;;;9.93;100.00;100873.94;6084402;19;20074;-74
2023/11/20 06:40:25;;;;;;;12.82;2.92;;;;;;;9.89;100.00;100871.41;6085555;19;20025;-74
2023/11/20 06:42:32;;;;;;;17.52;2.55;;;;;;;9.85;100.00;100877.72;6083845;19;20346;-74
2023/11/20 06:44:37;;;;;;;14.95;3.38;;;;;;;9.84;100.00;100881.22;6083169;19;20038;-74
2023/11/20 06:46:46;;;;;;;12.63;3.08;;;;;;;9.88;100.00;100874.97;6082753;19;20010;-74
2023/11/20 06:48:52;;;;;;;14.30;3.92;;;;;;;9.92;100.00;100872.22;6081996;19;20767;-74
2023/11/20 06:50:57;;;;;;;15.15;3.40;;;;;;;9.89;100.00;100868.78;6083108;19;20003;-74
2023/11/20 06:53:04;;;;;;;18.17;3.58;;;;;;;9.89;100.00;100878.44;6077152;19;20403;-74
2023/11/20 06:55:10;;;;;;;24.55;4.20;;;;;;;9.88;100.00;100882.84;6083948;19;20093;-73
2023/11/20 06:57:16;;;;;;;14.98;2.95;;;;;;;9.86;100.00;100878.56;6080195;19;20011;-72
2023/11/20 06:59:29;;;;;;;20.23;3.25;;;;;;;9.88;100.00;100882.00;6084549;19;20739;-73
2023/11/20 07:01:38;;;;;;;24.17;4.28;;;;;;;9.90;100.00;100882.78;6084481;19;20010;-72
2023/11/20 07:03:44;;;;;;;15.48;3.58;;;;;;;9.94;100.00;100887.00;6085125;19;20057;-73
2023/11/20 07:05:50;;;;;;;19.67;4.35;;;;;;;9.92;100.00;100887.97;6085817;19;20007;-74
2023/11/20 07:07:53;;;;;;;24.98;3.78;;;;;;;9.92;100.00;100887.97;6084636;19;20027;-74
2023/11/20 07:10:10;;;;;;;24.13;3.78;;;;;;;9.89;100.00;100894.19;6083018;19;20020;-72
2023/11/20 07:12:15;;;;;;;19.52;3.25;;;;;;;9.91;100.00;100887.13;6084895;19;20037;-73
2023/11/20 07:14:20;;;;;;;21.95;4.15;;;;;;;9.90;100.00;100888.03;6083152;19;20002;-73
2023/11/20 07:16:28;;;;;;;18.63;3.42;;;;;;;9.92;100.00;100894.06;6086232;19;20113;-74
2023/11/20 07:18:36;;;;;;;18.95;4.05;;;;;;;9.91;100.00;100887.13;6084638;19;20053;-75
2023/11/20 07:20:42;;;;;;;19.33;2.95;;;;;;;9.85;100.00;100889.97;6085393;19;20364;-73
2023/11/20 07:22:47;;;;;;;17.63;3.63;;;;;;;9.83;100.00;100889.19;6084325;19;20355;-73
2023/11/20 07:24:55;;;;;;;17.65;5.13;;;;;;;9.85;100.00;100900.47;6083127;19;20649;-74
2023/11/20 07:27:03;;;;;;;20.88;4.30;;;;;;;9.81;100.00;100902.34;6080513;19;20006;-75
2023/11/20 07:29:13;;;;;;;14.77;3.20;;;;;;;9.78;100.00;100906.84;6086356;19;20014;-74
2023/11/20 07:31:31;;;;;;;16.55;3.85;;;;;;;9.65;100.00;100896.78;5985099;19;2004843;-73
2023/11/20 07:33:34;;;;;;;26.38;3.42;;;;;;;9.61;100.00;100905.69;6081853;19;20018;-73
2023/11/20 07:35:40;;;;;;;16.75;4.30;;;;;;;9.59;100.00;100902.25;6080137;19;20452;-73
2023/11/20 07:37:44;;;;;;;18.95;3.80;;;;;;;9.54;100.00;100909.44;6083755;19;20332;-73
2023/11/20 07:39:50;;;;;;;19.60;4.22;;;;;;;9.56;100.00;100897.13;6083327;19;20006;-74
2023/11/20 07:41:56;;;;;;;17.15;3.33;;;;;;;9.61;100.00;100910.94;6081043;19;20002;-74
2023/11/20 07:44:03;;;;;;;13.95;2.75;;;;;;;9.52;100.00;100915.66;6080019;19;20027;-74
2023/11/20 07:46:09;;;;;;;12.80;2.78;;;;;;;9.52;100.00;100915.66;6083569;19;20034;-75
2023/11/20 07:48:17;;;;;;;22.08;3.70;;;;;;;9.50;100.00;100923.56;6078621;19;20078;-73
2023/11/20 07:50:24;;;;;;;9.20;2.45;;;;;;;9.55;100.00;100919.00;6082302;19;20007;-73
2023/11/20 07:52:29;;;;;;;17.00;3.03;;;;;;;9.56;100.00;100920.75;6081827;19;20421;-74
2023/11/20 07:54:36;;;;;;;23.55;4.35;;;;;;;9.71;100.00;100923.72;6081106;19;20030;-74
2023/11/20 07:56:41;;;;;;;16.80;3.45;;;;;;;9.76;100.00;100924.41;6082954;19;20082;-74
2023/11/20 07:58:49;;;;;;;10.20;3.40;;;;;;;9.85;100.00;100919.72;6068986;19;20037;-72
2023/11/20 08:00:54;;;;;;;14.30;3.70;;;;;;;9.86;100.00;100912.69;6071266;19;20002;-73
2023/11/20 08:02:59;;;;;;;21.75;4.15;;;;;;;9.89;100.00;100920.44;6074459;19;20170;-73
2023/11/20 08:05:09;;;;;;;24.63;4.47;;;;;;;9.85;100.00;100917.09;6077890;19;20569;-73
2023/11/20 08:07:16;;;;;;;30.80;5.72;;;;;;;9.86;100.00;100920.56;6078527;19;20467;-75
2023/11/20 08:09:21;;;;;;;22.15;4.15;;;;;;;9.86;100.00;100918.78;6073793;19;20683;-74
2023/11/20 08:11:26;;;;;;;18.23;3.97;;;;;;;9.91;100.00;100912.53;6081376;19;20085;-74
2023/11/20 08:13:32;;;;;;;17.23;3.55;;;;;;;9.96;100.00;100914.06;6076975;19;20561;-75
2023/11/20 08:15:37;;;;;;;24.05;4.80;;;;;;;9.92;100.00;100915.06;6079862;19;20011;-74
2023/11/20 08:17:44;;;;;;;23.58;4.53;;;;;;;9.89;100.00;100916.03;6078675;19;20513;-72
2023/11/20 08:19:47;;;;;;;29.48;4.93;;;;;;;9.95;100.00;100916.72;6081625;19;20562;-74
2023/11/20 08:21:55;;;;;;;20.80;4.22;;;;;;;10.00;100.00;100918.25;6078060;19;20046;-72
2023/11/20 08:24:00;;;;;;;17.30;3.63;;;;;;;10.03;100.00;100907.69;6073957;19;20009;-75
2023/11/20 08:26:06;;;;;;;23.90;4.60;;;;;;;10.14;100.00;100911.66;6079846;19;20404;-73
2023/11/20 08:28:11;;;;;;;28.98;4.55;;;;;;;10.22;100.00;100907.00;6082739;19;20393;-72
2023/11/20 08:30:16;;;;;;;18.42;4.72;;;;;;;10.34;100.00;100901.28;6078580;19;20600;-77
2023/11/20 08:32:21;;;;;;;45.17;11.23;;;;;;;10.42;100.00;100901.84;6076403;19;20003;-74
2023/11/20 08:34:26;;;;;;;23.50;6.28;;;;;;;10.45;100.00;100898.22;6081500;19;20037;-76
2023/11/20 08:36:32;;;;;;;26.35;4.40;;;;;;;10.51;100.00;100908.53;6084041;19;20423;-72
2023/11/20 08:38:39;;;;;;;25.17;4.82;;;;;;;10.49;100.00;100908.56;6080323;19;19998;-73
2023/11/20 08:40:46;;;;;;;21.13;3.67;;;;;;;10.51;100.00;100904.13;6079522;19;20446;-72
2023/11/20 08:42:53;;;;;;;23.27;4.03;;;;;;;10.54;100.00;100914.50;6079839;19;20309;-76
2023/11/20 08:45:06;;;;;;;16.88;3.17;;;;;;;10.51;100.00;100906.75;6078414;19;20055;-76
2023/11/20 08:47:12;;;;;;;14.85;3.33;;;;;;;10.44;100.00;100904.41;6090593;19;20017;-72
2023/11/20 08:49:19;;;;;;;16.55;4.20;;;;;;;10.44;100.00;100910.53;6092951;19;20049;-73
2023/11/20 08:51:24;;;;;;;14.85;3.58;;;;;;;10.44;100.00;100910.53;6091264;19;20260;-73
2023/11/20 08:53:28;;;;;;;20.67;3.92;;;;;;;10.48;100.00;100908.66;6083352;19;20316;-73
2023/11/20 08:55:36;;;;;;;15.95;4.45;;;;;;;10.51;100.00;100911.16;6093488;19;20795;-72
2023/11/20 08:57:41;;;;;;;17.33;3.55;;;;;;;10.48;100.00;100909.50;6093890;19;20379;-74
2023/11/20 08:59:46;;;;;;;12.70;2.92;;;;;;;10.45;100.00;100914.00;6091566;19;20017;-76
2023/11/20 09:01:54;;;;;;;15.20;3.67;;;;;;;10.43;100.00;100905.34;6096743;19;20919;-73
2023/11/20 09:03:56;;;;;;;20.75;5.18;;;;;;;10.34;100.00;100896.03;6092152;19;20499;-72
2023/11/20 09:06:01;;;;;;;26.40;3.50;;;;;;;10.44;100.00;100902.63;6092437;19;20096;-73
2023/11/20 09:08:07;;;;;;;15.50;2.70;;;;;;;10.39;100.00;100911.63;6095875;19;20014;-75
2023/11/20 09:10:10;;;;;;;16.13;4.75;;;;;;;10.39;100.00;100907.22;6091043;19;20015;-72
2023/11/20 09:12:18;;;;;;;13.90;3.28;;;;;;;10.42;100.00;100914.97;6084303;19;20089;-74
2023/11/20 09:14:23;;;;;;;20.02;3.90;;;;;;;10.43;100.00;100914.06;6090000;19;20006;-73
2023/11/20 09:16:28;;;;;;;22.75;5.28;;;;;;;10.45;100.00;100917.50;6091447;19;20006;-74
2023/11/20 09:18:36;;;;;;;19.08;2.92;;;;;;;10.43;100.00;100914.06;6088991;19;20098;-73
2023/11/20 09:20:42;;;;;;;17.48;4.13;;;;;;;10.42;100.00;100924.63;6090449;19;20011;-73
2023/11/20 09:22:47;;;;;;;20.95;3.90;;;;;;;10.43;100.00;100921.09;6089010;19;20081;-72
2023/11/20 09:24:52;;;;;;;14.60;4.45;;;;;;;10.31;100.00;100932.91;6092357;19;20010;-76
2023/11/20 09:27:13;;;;;;;21.83;3.67;;;;;;;10.14;100.00;100933.53;6091965;19;20002;-74
2023/11/20 09:29:21;;;;;;;11.98;3.05;;;;;;;10.07;100.00;100919.75;6092401;19;20006;-75
2023/11/20 09:31:25;;;;;;;13.57;3.42;;;;;;;10.01;100.00;100911.28;6090892;19;20066;-74
2023/11/20 09:33:31;;;;;;;21.90;4.13;;;;;;;9.89;100.00;100917.81;6091092;19;20076;-74
2023/11/20 09:35:37;;;;;;;23.60;4.28;;;;;;;9.80;100.00;100915.53;6091669;19;20010;-74
2023/11/20 09:37:42;;;;;;;21.23;4.40;;;;;;;9.91;100.00;100909.91;6091888;19;20430;-74